Time;durP1;ratioP1;P1;durP2;ratioP2;P2;SDS_P1;SDS_P2;PMS_P1;PMS_P2;Temp;Humidity;BMP_temperature;BMP_pressure;BME280_temperature;BME280_humidity;BME280_pressure;Samples;Min_cycle;Max_cycle;Signal;HPM_P1;HPM_P2
2023/09/21 00:01:38;;;;;;;1.83;1.73;;;16.30;98.90;;;;;;5093702;27;21194;-81
2023/09/21 00:04:06;;;;;;;1.80;1.70;;;16.30;99.00;;;;;;5098659;27;20630;-81
2023/09/21 00:06:34;;;;;;;1.67;1.57;;;16.30;99.20;;;;;;5100932;27;21160;-81
2023/09/21 00:09:01;;;;;;;1.97;1.77;;;16.20;98.90;;;;;;5098082;27;20761;-81
2023/09/21 00:11:28;;;;;;;1.80;1.67;;;16.30;99.10;;;;;;5097648;27;20627;-81
2023/09/21 00:13:55;;;;;;;1.77;1.47;;;16.30;98.80;;;;;;5097256;27;20722;-81
2023/09/21 00:16:25;;;;;;;3.53;2.50;;;16.30;98.80;;;;;;5095954;27;20650;-80
2023/09/21 00:18:52;;;;;;;2.10;1.60;;;16.40;98.90;;;;;;5094475;27;20723;-81
2023/09/21 00:21:20;;;;;;;2.20;2.00;;;16.30;98.70;;;;;;5096275;27;20617;-81
2023/09/21 00:23:48;;;;;;;3.00;1.60;;;16.40;98.60;;;;;;5085786;27;20620;-81
2023/09/21 00:26:15;;;;;;;2.17;1.90;;;16.40;98.80;;;;;;5098704;27;20629;-81
2023/09/21 00:28:43;;;;;;;1.80;1.40;;;16.40;98.80;;;;;;5098790;27;20663;-81
2023/09/21 00:31:10;;;;;;;1.70;1.60;;;16.40;98.70;;;;;;5105144;27;20615;-81
2023/09/21 00:33:38;;;;;;;1.60;1.50;;;16.40;98.90;;;;;;5102946;27;21806;-80
2023/09/21 00:36:05;;;;;;;3.33;1.90;;;16.30;98.80;;;;;;5080512;28;20658;-81
2023/09/21 00:38:32;;;;;;;1.67;1.57;;;16.40;99.10;;;;;;5098922;27;21005;-81
2023/09/21 00:41:03;;;;;;;2.37;2.17;;;16.20;99.70;;;;;;5098995;27;20630;-81
2023/09/21 00:43:30;;;;;;;2.00;1.77;;;16.20;99.50;;;;;;5101588;27;21273;-81
2023/09/21 00:46:00;;;;;;;1.90;1.80;;;16.20;99.40;;;;;;5081156;28;20632;-80
2023/09/21 00:48:33;;;;;;;2.13;1.50;;;16.20;99.80;;;;;;5096863;27;20620;-80
2023/09/21 00:51:01;;;;;;;1.73;1.63;;;16.20;99.80;;;;;;5099513;27;20688;-81
2023/09/21 00:53:29;;;;;;;1.60;1.50;;;16.10;99.90;;;;;;5102088;27;20623;-80
2023/09/21 00:55:59;;;;;;;1.90;1.57;;;16.10;99.90;;;;;;5103993;27;21099;-81
2023/09/21 00:58:29;;;;;;;1.90;1.80;;;16.00;99.90;;;;;;5093942;27;20621;-80
2023/09/21 01:00:56;;;;;;;1.40;1.30;;;16.00;99.90;;;;;;5079239;28;20620;-80
2023/09/21 01:03:24;;;;;;;3.07;1.83;;;16.10;99.90;;;;;;5096684;27;20624;-80
2023/09/21 01:05:52;;;;;;;2.90;1.90;;;16.00;99.90;;;;;;5096635;27;20710;-81
2023/09/21 01:08:20;;;;;;;1.80;1.70;;;16.00;99.90;;;;;;5101231;27;20721;-80
2023/09/21 01:10:49;;;;;;;2.20;2.00;;;16.00;99.90;;;;;;5091408;27;20635;-81
2023/09/21 01:13:17;;;;;;;1.30;1.20;;;15.90;99.90;;;;;;5100288;27;21278;-81
2023/09/21 01:15:59;;;;;;;2.40;2.20;;;15.90;99.80;;;;;;5092807;27;20629;-80
2023/09/21 01:18:27;;;;;;;2.20;2.00;;;16.00;99.90;;;;;;5101508;27;20761;-81
2023/09/21 01:21:00;;;;;;;1.70;1.60;;;16.00;99.80;;;;;;5103268;27;20638;-81
2023/09/21 01:23:39;;;;;;;1.63;1.53;;;16.00;99.90;;;;;;5092688;27;20687;-80
2023/09/21 01:26:07;;;;;;;1.93;1.80;;;15.80;99.70;;;;;;5083986;28;20706;-81
2023/09/21 01:28:37;;;;;;;1.80;1.70;;;15.90;99.90;;;;;;5092774;27;20637;-81
2023/09/21 01:31:05;;;;;;;2.00;1.73;;;15.90;99.90;;;;;;5103628;27;20629;-81
2023/09/21 01:33:34;;;;;;;2.60;1.67;;;15.90;99.90;;;;;;5103797;27;21046;-81
2023/09/21 01:36:03;;;;;;;1.83;1.73;;;15.90;99.90;;;;;;5099513;27;20747;-80
2023/09/21 01:38:30;;;;;;;2.60;2.20;;;15.90;99.90;;;;;;5080246;28;20739;-80
2023/09/21 01:41:00;;;;;;;2.90;1.77;;;15.90;99.90;;;;;;5099000;27;20711;-81
2023/09/21 01:43:28;;;;;;;2.27;1.67;;;15.90;99.90;;;;;;5098343;27;21198;-81
2023/09/21 01:45:56;;;;;;;1.97;1.80;;;15.90;99.90;;;;;;5100064;27;21102;-80
2023/09/21 01:48:24;;;;;;;1.77;1.67;;;15.90;99.80;;;;;;5097151;27;20630;-80
2023/09/21 01:50:52;;;;;;;1.43;1.30;;;15.90;99.90;;;;;;5099631;27;20628;-80
2023/09/21 01:53:21;;;;;;;1.40;1.30;;;15.90;99.90;;;;;;5098299;27;21059;-81
2023/09/21 01:55:49;;;;;;;2.73;2.27;;;16.00;99.90;;;;;;5095241;27;20723;-81
2023/09/21 01:58:19;;;;;;;1.60;1.50;;;16.00;99.90;;;;;;5097648;27;21162;-81
2023/09/21 02:00:47;;;;;;;1.60;1.30;;;16.00;99.90;;;;;;5089315;27;20760;-81
2023/09/21 02:03:17;;;;;;;1.97;1.87;;;16.00;99.90;;;;;;5086781;27;21207;-80
2023/09/21 02:05:46;;;;;;;1.90;1.80;;;16.10;99.90;;;;;;5097095;27;20627;-80
2023/09/21 02:08:13;;;;;;;1.67;1.57;;;16.10;99.90;;;;;;5098148;27;20639;-80
2023/09/21 02:10:41;;;;;;;2.23;2.03;;;16.00;99.90;;;;;;5099700;27;20647;-80
2023/09/21 02:13:09;;;;;;;1.50;1.40;;;16.10;99.90;;;;;;5097101;27;20895;-80
2023/09/21 02:15:38;;;;;;;2.83;2.00;;;16.00;99.90;;;;;;5094631;27;21280;-79
2023/09/21 02:18:06;;;;;;;2.93;2.27;;;16.00;99.90;;;;;;5093910;27;20643;-80
2023/09/21 02:20:35;;;;;;;2.20;1.70;;;15.90;99.90;;;;;;5092663;27;20738;-81
2023/09/21 02:23:04;;;;;;;3.57;1.53;;;15.90;99.90;;;;;;5102737;27;20619;-81
2023/09/21 02:25:38;;;;;;;2.00;1.70;;;15.90;99.90;;;;;;5091226;27;20631;-81
2023/09/21 02:28:09;;;;;;;2.17;1.97;;;15.90;99.90;;;;;;5081239;28;21308;-81
2023/09/21 02:30:40;;;;;;;1.63;1.53;;;15.90;99.90;;;;;;5084256;28;21015;-81
2023/09/21 02:33:12;;;;;;;3.47;2.37;;;15.90;99.90;;;;;;5096053;27;20627;-81
2023/09/21 02:35:41;;;;;;;2.57;1.73;;;15.90;99.90;;;;;;5102513;28;20722;-82
2023/09/21 02:38:11;;;;;;;1.30;1.30;;;15.90;99.90;;;;;;5084478;28;21005;-82
2023/09/21 02:40:40;;;;;;;2.10;1.80;;;16.00;99.90;;;;;;5093127;28;20651;-82
2023/09/21 02:43:08;;;;;;;1.80;1.70;;;16.00;99.90;;;;;;5095784;28;20630;-81
2023/09/21 02:45:37;;;;;;;6.03;2.63;;;16.10;99.90;;;;;;5092250;28;21369;-81
2023/09/21 02:48:10;;;;;;;1.60;1.50;;;16.00;99.90;;;;;;5100196;27;21202;-81
2023/09/21 02:50:38;;;;;;;2.10;1.90;;;16.20;99.90;;;;;;5097964;27;20680;-81
2023/09/21 02:53:08;;;;;;;2.30;2.00;;;16.20;99.90;;;;;;5097193;27;20687;-81
2023/09/21 02:55:36;;;;;;;1.60;1.50;;;16.20;99.90;;;;;;5098048;27;20628;-81
2023/09/21 02:58:09;;;;;;;1.77;1.67;;;16.20;99.80;;;;;;5092009;27;20706;-82
2023/09/21 03:00:39;;;;;;;2.80;1.70;;;16.20;99.70;;;;;;5100340;27;20627;-82
2023/09/21 03:03:07;;;;;;;1.67;1.57;;;16.30;99.50;;;;;;5088766;27;20614;-82
2023/09/21 03:05:38;;;;;;;2.40;2.07;;;16.40;99.20;;;;;;5093813;27;20631;-81
2023/09/21 03:08:09;;;;;;;1.53;1.43;;;16.40;98.80;;;;;;5099608;27;20630;-81
2023/09/21 03:10:37;;;;;;;1.80;1.70;;;16.50;99.00;;;;;;5093977;27;21347;-81
2023/09/21 03:13:05;;;;;;;2.00;1.90;;;16.50;98.40;;;;;;5106687;27;20624;-82
2023/09/21 03:15:33;;;;;;;1.67;1.57;;;16.50;98.80;;;;;;5096015;27;21203;-82
2023/09/21 03:17:59;;;;;;;2.07;1.60;;;16.50;98.80;;;;;;5095392;27;21492;-81
2023/09/21 03:20:28;;;;;;;2.93;2.27;;;16.50;98.80;;;;;;5097752;27;20768;-81
2023/09/21 03:22:58;;;;;;;2.07;1.97;;;16.50;98.80;;;;;;5106169;27;21031;-82
2023/09/21 03:25:31;;;;;;;3.23;2.17;;;16.50;98.90;;;;;;5105665;27;20762;-82
2023/09/21 03:27:59;;;;;;;1.93;1.80;;;16.50;98.60;;;;;;5106274;27;20638;-82
2023/09/21 03:30:27;;;;;;;1.70;1.60;;;16.50;98.80;;;;;;5095478;27;21352;-82
2023/09/21 03:32:54;;;;;;;3.70;1.87;;;16.50;99.10;;;;;;5100643;27;20623;-82
2023/09/21 03:35:26;;;;;;;3.20;2.10;;;16.50;99.10;;;;;;5105132;27;20983;-82
2023/09/21 03:37:54;;;;;;;1.83;1.73;;;16.40;99.20;;;;;;5106062;27;20651;-81
2023/09/21 03:40:23;;;;;;;2.20;1.77;;;16.40;99.40;;;;;;5109216;27;20992;-81
2023/09/21 03:42:50;;;;;;;2.67;2.10;;;16.40;99.90;;;;;;5098847;27;20665;-81
2023/09/21 03:45:20;;;;;;;3.37;1.70;;;16.40;99.90;;;;;;5100591;27;20629;-81
2023/09/21 03:47:46;;;;;;;2.10;1.90;;;16.40;99.90;;;;;;5103103;27;20635;-82
2023/09/21 03:50:14;;;;;;;2.07;1.93;;;16.30;99.90;;;;;;5106122;27;20620;-81
2023/09/21 03:52:41;;;;;;;1.87;1.70;;;16.30;99.90;;;;;;5081403;27;20642;-81
2023/09/21 03:55:10;;;;;;;2.50;2.23;;;16.30;99.90;;;;;;5096069;27;20779;-80
2023/09/21 03:57:39;;;;;;;1.77;1.67;;;16.30;99.90;;;;;;5101054;27;20658;-80
2023/09/21 04:00:23;;;;;;;2.50;2.30;;;16.30;99.90;;;;;;5093277;27;20759;-81
2023/09/21 04:02:49;;;;;;;1.90;1.70;;;16.20;99.90;;;;;;5090741;27;21899;-81
2023/09/21 04:05:20;;;;;;;1.50;1.40;;;16.00;99.90;;;;;;5085941;27;20632;-81
2023/09/21 04:07:48;;;;;;;3.13;1.33;;;16.10;99.90;;;;;;5094645;27;20620;-81
2023/09/21 04:10:16;;;;;;;2.63;1.60;;;16.10;99.90;;;;;;5099144;27;20620;-81
2023/09/21 04:12:44;;;;;;;2.60;1.90;;;16.20;99.90;;;;;;5099219;27;21179;-82
2023/09/21 04:15:12;;;;;;;2.13;1.93;;;16.20;99.90;;;;;;5102173;27;20638;-81
2023/09/21 04:17:40;;;;;;;2.23;2.00;;;16.20;99.90;;;;;;5083400;27;21207;-81
2023/09/21 04:20:11;;;;;;;2.60;2.40;;;16.20;99.90;;;;;;5099050;27;20636;-80
2023/09/21 04:22:38;;;;;;;2.23;2.03;;;16.20;99.90;;;;;;5099527;27;20628;-80
2023/09/21 04:25:09;;;;;;;1.80;1.70;;;16.20;99.90;;;;;;5103907;27;21148;-80
2023/09/21 04:27:37;;;;;;;3.90;1.90;;;16.30;99.90;;;;;;5096642;27;20854;-81
2023/09/21 04:30:06;;;;;;;2.50;2.20;;;16.20;99.90;;;;;;5099696;27;20979;-81
2023/09/21 04:32:34;;;;;;;2.17;1.90;;;16.20;99.90;;;;;;5080629;27;21248;-79
2023/09/21 04:35:03;;;;;;;2.33;2.00;;;16.20;99.90;;;;;;5093317;27;20646;-80
2023/09/21 04:37:30;;;;;;;2.80;2.60;;;16.10;99.90;;;;;;5092296;27;20657;-79
2023/09/21 04:39:58;;;;;;;2.13;1.93;;;16.10;99.90;;;;;;5088652;27;20628;-80
2023/09/21 04:42:25;;;;;;;1.87;1.67;;;16.20;99.90;;;;;;5104102;27;20663;-80
2023/09/21 04:44:55;;;;;;;2.20;2.00;;;16.20;99.90;;;;;;5090303;27;20628;-85
2023/09/21 04:47:23;;;;;;;2.37;2.00;;;16.20;99.90;;;;;;5098725;27;20624;-76
2023/09/21 04:49:50;;;;;;;2.10;2.00;;;16.30;99.90;;;;;;5098504;27;20624;-76
2023/09/21 04:52:17;;;;;;;2.67;2.47;;;16.30;99.90;;;;;;5099386;27;20612;-75
2023/09/21 04:54:49;;;;;;;2.20;1.80;;;16.20;99.90;;;;;;5102937;27;20878;-80
2023/09/21 04:57:17;;;;;;;2.90;2.43;;;16.10;99.90;;;;;;5091614;27;20751;-83
2023/09/21 04:59:44;;;;;;;2.63;2.43;;;16.20;99.90;;;;;;5089677;27;20734;-83
2023/09/21 05:02:11;;;;;;;2.67;2.37;;;16.30;99.90;;;;;;5097896;27;20633;-84
2023/09/21 05:04:39;;;;;;;2.20;2.00;;;16.30;99.90;;;;;;5096026;27;21188;-82
2023/09/21 05:07:06;;;;;;;2.50;2.10;;;16.30;99.90;;;;;;5102366;27;20612;-81
2023/09/21 05:09:33;;;;;;;6.63;3.00;;;16.30;99.90;;;;;;5092675;27;20997;-78
2023/09/21 05:12:00;;;;;;;2.27;1.90;;;16.40;99.90;;;;;;5085081;27;21203;-82
2023/09/21 05:14:27;;;;;;;2.00;1.80;;;16.50;99.90;;;;;;5102001;27;20655;-81
2023/09/21 05:16:57;;;;;;;2.20;1.73;;;16.50;99.90;;;;;;5103566;27;20623;-81
2023/09/21 05:19:24;;;;;;;2.43;2.23;;;16.60;99.90;;;;;;5082637;27;21699;-79
2023/09/21 05:21:56;;;;;;;3.40;2.80;;;16.50;99.90;;;;;;5087164;27;20632;-82
2023/09/21 05:24:23;;;;;;;2.60;2.30;;;16.50;99.90;;;;;;5080304;27;20628;-81
2023/09/21 05:26:50;;;;;;;5.90;2.20;;;16.50;99.90;;;;;;5099405;27;20668;-85
2023/09/21 05:29:17;;;;;;;2.50;2.30;;;16.50;99.90;;;;;;5104319;27;20680;-82
2023/09/21 05:31:44;;;;;;;2.53;2.13;;;16.60;99.90;;;;;;5080039;27;20624;-85
2023/09/21 05:34:11;;;;;;;2.37;2.17;;;16.70;99.90;;;;;;5096294;27;20626;-82
2023/09/21 05:36:38;;;;;;;2.00;1.90;;;16.70;99.90;;;;;;5099744;27;20786;-85
2023/09/21 05:39:08;;;;;;;2.20;1.90;;;16.70;99.90;;;;;;5102792;27;20662;-82
2023/09/21 05:41:34;;;;;;;2.47;1.90;;;16.70;99.90;;;;;;5092024;27;20699;-80
2023/09/21 05:44:01;;;;;;;2.13;1.90;;;16.80;99.90;;;;;;5085819;27;20710;-81
2023/09/21 05:46:28;;;;;;;2.50;1.83;;;16.80;99.90;;;;;;5091809;27;20632;-81
2023/09/21 05:48:55;;;;;;;3.73;2.80;;;16.90;99.90;;;;;;5092244;27;20753;-81
2023/09/21 05:51:22;;;;;;;2.10;1.93;;;16.90;99.90;;;;;;5090673;27;20632;-81
2023/09/21 05:53:49;;;;;;;5.47;2.50;;;16.90;99.90;;;;;;5102679;27;20632;-80
2023/09/21 05:56:19;;;;;;;2.70;2.50;;;17.00;99.90;;;;;;5083294;27;20660;-81
2023/09/21 05:58:46;;;;;;;2.93;1.90;;;17.00;99.90;;;;;;5093070;27;20665;-80
2023/09/21 06:01:14;;;;;;;1.87;1.77;;;17.00;99.90;;;;;;5085020;28;20624;-81
2023/09/21 06:03:41;;;;;;;4.30;2.07;;;17.00;99.90;;;;;;5100717;27;20628;-81
2023/09/21 06:06:07;;;;;;;2.43;2.17;;;17.00;99.90;;;;;;5102896;27;20726;-81
2023/09/21 06:08:37;;;;;;;2.07;1.97;;;17.10;99.90;;;;;;5081203;27;20625;-81
2023/09/21 06:11:04;;;;;;;2.43;2.23;;;17.10;99.90;;;;;;5093495;27;22171;-81
2023/09/21 06:13:32;;;;;;;1.77;1.60;;;17.10;99.90;;;;;;5096982;27;20635;-79
2023/09/21 06:16:02;;;;;;;2.87;2.40;;;17.10;99.90;;;;;;5096614;27;21207;-80
2023/09/21 06:18:29;;;;;;;7.90;2.30;;;17.20;99.90;;;;;;5093699;27;21541;-80
2023/09/21 06:20:56;;;;;;;5.23;2.70;;;17.20;99.90;;;;;;5097614;27;20637;-80
2023/09/21 06:23:23;;;;;;;2.70;2.50;;;17.20;99.90;;;;;;5093154;27;21067;-80
2023/09/21 06:25:50;;;;;;;2.97;2.23;;;17.30;99.90;;;;;;5095234;27;20709;-78
2023/09/21 06:28:21;;;;;;;2.70;2.40;;;17.30;99.90;;;;;;5090927;27;21430;-77
2023/09/21 06:30:51;;;;;;;2.53;2.33;;;17.30;99.90;;;;;;5098806;27;20670;-77
2023/09/21 06:33:18;;;;;;;2.50;2.30;;;17.30;99.90;;;;;;5081566;28;20621;-77
2023/09/21 06:35:48;;;;;;;2.90;2.70;;;17.30;99.90;;;;;;5090294;28;20636;-77
2023/09/21 06:38:14;;;;;;;3.10;2.27;;;17.50;99.90;;;;;;5095809;28;21282;-78
2023/09/21 06:40:41;;;;;;;4.17;2.33;;;17.50;99.90;;;;;;5097976;28;20624;-77
2023/09/21 06:43:08;;;;;;;3.07;2.03;;;17.50;99.90;;;;;;5096013;28;20731;-77
2023/09/21 06:45:35;;;;;;;4.60;3.10;;;17.50;99.90;;;;;;5094503;28;20638;-77
2023/09/21 06:48:05;;;;;;;2.20;1.97;;;17.50;99.90;;;;;;5095375;28;20615;-77
2023/09/21 06:50:32;;;;;;;4.23;2.60;;;17.60;99.90;;;;;;5097707;28;20697;-78
2023/09/21 06:52:59;;;;;;;3.30;2.60;;;17.50;99.90;;;;;;5091424;28;20625;-77
2023/09/21 06:55:28;;;;;;;4.33;3.03;;;17.60;99.90;;;;;;5096988;28;20988;-77
2023/09/21 06:57:55;;;;;;;2.63;2.43;;;17.60;99.90;;;;;;5086143;28;20679;-76
2023/09/21 07:00:22;;;;;;;3.07;2.77;;;17.70;99.90;;;;;;5088326;28;21196;-76
2023/09/21 07:02:49;;;;;;;4.17;3.27;;;17.70;99.90;;;;;;5096422;28;20711;-76
2023/09/21 07:05:19;;;;;;;4.00;2.77;;;17.70;99.90;;;;;;5088875;28;20619;-76
2023/09/21 07:07:46;;;;;;;4.30;3.23;;;17.70;99.90;;;;;;5101289;28;20623;-76
2023/09/21 07:10:14;;;;;;;3.70;2.77;;;17.80;99.90;;;;;;5104838;28;20635;-76
2023/09/21 07:12:41;;;;;;;2.80;2.43;;;17.90;99.90;;;;;;5096408;28;20671;-76
2023/09/21 07:15:09;;;;;;;2.63;2.40;;;18.00;99.90;;;;;;5095978;28;21202;-76
2023/09/21 07:17:36;;;;;;;3.93;3.03;;;18.10;99.60;;;;;;5097932;28;20638;-76
2023/09/21 07:20:06;;;;;;;3.10;2.60;;;18.10;99.80;;;;;;5101099;27;20727;-76
2023/09/21 07:22:34;;;;;;;3.73;3.17;;;18.20;99.40;;;;;;5079513;28;21168;-74
2023/09/21 07:25:02;;;;;;;3.13;2.83;;;18.30;99.20;;;;;;5094552;28;20724;-76
2023/09/21 07:27:29;;;;;;;3.67;2.60;;;18.40;99.10;;;;;;5095948;28;21023;-75
2023/09/21 07:29:57;;;;;;;2.90;2.60;;;18.50;98.60;;;;;;5095935;28;20634;-76
2023/09/21 07:32:25;;;;;;;2.80;2.43;;;18.60;98.80;;;;;;5098258;28;20644;-76
2023/09/21 07:34:52;;;;;;;3.03;2.83;;;18.60;98.40;;;;;;5103834;27;21311;-76
2023/09/21 07:37:19;;;;;;;2.73;2.53;;;18.70;98.50;;;;;;5098435;27;20639;-75
2023/09/21 07:39:48;;;;;;;2.67;2.30;;;18.70;98.70;;;;;;5088901;27;21273;-75
2023/09/21 07:42:15;;;;;;;5.10;3.03;;;18.70;98.80;;;;;;5102929;27;20707;-76
2023/09/21 07:44:44;;;;;;;2.93;2.17;;;18.80;98.40;;;;;;5081267;28;20958;-75
2023/09/21 07:47:12;;;;;;;2.70;2.50;;;18.90;98.60;;;;;;5104864;27;20620;-75
2023/09/21 07:49:39;;;;;;;3.10;2.30;;;18.90;98.30;;;;;;5104062;27;20625;-75
2023/09/21 07:52:07;;;;;;;8.90;3.67;;;18.90;98.40;;;;;;5101235;27;20627;-75
2023/09/21 07:54:33;;;;;;;25.30;5.53;;;19.00;98.60;;;;;;5100705;27;20639;-76
2023/09/21 07:57:03;;;;;;;8.50;5.17;;;19.10;98.00;;;;;;5104397;27;20657;-75
2023/09/21 07:59:31;;;;;;;5.00;3.33;;;19.10;97.90;;;;;;5081776;27;20672;-76
2023/09/21 08:01:57;;;;;;;3.20;2.90;;;19.30;98.50;;;;;;5096786;27;20712;-76
2023/09/21 08:04:27;;;;;;;3.57;2.63;;;19.40;98.00;;;;;;5100167;27;20640;-76
2023/09/21 08:06:55;;;;;;;2.30;2.10;;;19.70;97.80;;;;;;5096783;27;20630;-76
2023/09/21 08:09:22;;;;;;;2.53;2.20;;;20.00;97.70;;;;;;5103399;27;20986;-76
2023/09/21 08:11:51;;;;;;;2.73;2.53;;;20.30;96.50;;;;;;5104226;27;20641;-76
2023/09/21 08:14:19;;;;;;;2.13;1.80;;;20.50;96.70;;;;;;5100972;27;20618;-76
2023/09/21 08:16:46;;;;;;;2.33;2.13;;;20.60;95.40;;;;;;5097836;27;20631;-76
2023/09/21 08:19:13;;;;;;;2.03;1.83;;;20.60;95.50;;;;;;5099827;27;20652;-76
2023/09/21 08:21:40;;;;;;;2.63;2.40;;;20.60;95.30;;;;;;5104208;27;20986;-76
2023/09/21 08:24:09;;;;;;;2.53;2.00;;;20.70;95.20;;;;;;5097599;27;20622;-76
2023/09/21 08:26:36;;;;;;;4.10;2.20;;;20.70;95.00;;;;;;5097732;27;20622;-76
2023/09/21 08:29:02;;;;;;;9.60;3.10;;;20.70;95.50;;;;;;5100740;27;20746;-76
2023/09/21 08:31:31;;;;;;;4.60;2.83;;;20.80;95.70;;;;;;5092207;27;20636;-76
2023/09/21 08:33:58;;;;;;;8.90;3.20;;;20.90;95.20;;;;;;5104657;27;20949;-75
2023/09/21 08:36:25;;;;;;;3.63;3.10;;;21.00;95.30;;;;;;5082031;27;20627;-75
2023/09/21 08:38:53;;;;;;;5.83;2.80;;;21.00;95.10;;;;;;5085033;27;20663;-75
2023/09/21 08:41:20;;;;;;;2.67;2.30;;;21.00;95.40;;;;;;5100475;27;20957;-76
2023/09/21 08:43:49;;;;;;;1.73;1.60;;;21.20;95.50;;;;;;5098017;27;20634;-76
2023/09/21 08:46:17;;;;;;;2.30;2.10;;;21.50;93.90;;;;;;5095977;27;21086;-76
2023/09/21 08:48:46;;;;;;;2.37;2.17;;;21.60;93.60;;;;;;5089994;27;21274;-76
2023/09/21 08:51:15;;;;;;;3.20;2.43;;;21.60;94.00;;;;;;5091803;27;20629;-76
2023/09/21 08:53:46;;;;;;;2.43;2.30;;;21.60;93.80;;;;;;5097247;27;20637;-76
2023/09/21 08:56:13;;;;;;;2.73;2.40;;;21.70;94.80;;;;;;5095641;27;20740;-75
2023/09/21 08:58:41;;;;;;;2.87;2.30;;;21.90;93.70;;;;;;5094233;27;21331;-76
2023/09/21 09:01:08;;;;;;;1.70;1.60;;;21.90;93.90;;;;;;5084433;27;20625;-76
2023/09/21 09:03:35;;;;;;;2.10;1.90;;;21.90;92.60;;;;;;5091247;27;20999;-76
2023/09/21 09:06:04;;;;;;;5.00;2.50;;;22.10;92.40;;;;;;5098117;27;20636;-76
2023/09/21 09:08:31;;;;;;;2.27;1.67;;;22.00;92.20;;;;;;5092906;27;21270;-76
2023/09/21 09:10:58;;;;;;;1.70;1.60;;;22.00;91.60;;;;;;5099173;27;20635;-76
2023/09/21 09:13:31;;;;;;;2.23;1.80;;;22.10;91.70;;;;;;5093191;27;20677;-76
2023/09/21 09:15:59;;;;;;;2.27;1.70;;;22.10;91.40;;;;;;5098023;27;20630;-76
2023/09/21 09:18:26;;;;;;;1.57;1.47;;;22.20;91.30;;;;;;5092223;27;20804;-76
2023/09/21 09:20:55;;;;;;;1.93;1.77;;;22.30;91.40;;;;;;5102307;27;20983;-74
2023/09/21 09:23:23;;;;;;;5.30;1.83;;;22.40;91.60;;;;;;5101472;27;20749;-74
2023/09/21 09:25:51;;;;;;;1.80;1.70;;;22.50;92.00;;;;;;5101693;27;20629;-74
2023/09/21 09:28:18;;;;;;;2.73;1.90;;;22.60;91.80;;;;;;5090591;27;20613;-73
2023/09/21 09:30:45;;;;;;;4.80;2.20;;;22.70;90.60;;;;;;5097186;27;20754;-74
2023/09/21 09:33:15;;;;;;;1.90;1.80;;;22.80;90.80;;;;;;5098474;27;21150;-74
2023/09/21 09:35:45;;;;;;;1.93;1.80;;;23.00;90.10;;;;;;5098192;27;20632;-75
2023/09/21 09:38:12;;;;;;;2.20;1.80;;;23.20;90.30;;;;;;5097570;27;20623;-75
2023/09/21 09:40:40;;;;;;;2.83;2.03;;;23.30;90.30;;;;;;5096383;27;20634;-75
2023/09/21 09:43:08;;;;;;;1.70;1.60;;;23.30;90.40;;;;;;5096675;27;20643;-75
2023/09/21 09:45:37;;;;;;;3.53;1.77;;;23.40;89.00;;;;;;5088054;27;20659;-75
2023/09/21 09:48:11;;;;;;;19.17;3.97;;;23.60;90.20;;;;;;5091054;27;20615;-75
2023/09/21 09:50:42;;;;;;;4.80;2.60;;;23.70;88.40;;;;;;5091134;27;20642;-75
2023/09/21 09:53:13;;;;;;;2.23;1.70;;;23.70;88.20;;;;;;5085519;27;20627;-75
2023/09/21 09:55:43;;;;;;;2.00;1.50;;;23.90;88.00;;;;;;5096637;27;20623;-75
2023/09/21 09:58:10;;;;;;;2.50;2.30;;;23.90;87.30;;;;;;5096883;27;20614;-75
2023/09/21 10:00:39;;;;;;;2.20;1.70;;;23.80;86.80;;;;;;5102482;27;20750;-75
2023/09/21 10:03:08;;;;;;;1.53;1.43;;;23.70;88.80;;;;;;5084553;27;20770;-75
2023/09/21 10:05:36;;;;;;;1.63;1.53;;;23.70;88.60;;;;;;5089216;27;20607;-74
2023/09/21 10:08:05;;;;;;;1.67;1.57;;;23.80;87.90;;;;;;5098322;27;20638;-74
2023/09/21 10:10:36;;;;;;;2.10;1.93;;;23.80;87.10;;;;;;5098194;27;20642;-75
2023/09/21 10:13:05;;;;;;;1.43;1.33;;;23.90;86.20;;;;;;5102770;27;20641;-75
2023/09/21 10:15:33;;;;;;;4.93;1.73;;;23.90;87.00;;;;;;5078759;27;20643;-74
2023/09/21 10:18:01;;;;;;;5.20;1.80;;;23.80;85.40;;;;;;5092518;27;22046;-75
2023/09/21 10:20:32;;;;;;;2.57;2.03;;;23.90;84.40;;;;;;5096141;27;20659;-75
2023/09/21 10:23:02;;;;;;;2.10;1.90;;;23.90;84.00;;;;;;5098418;27;20662;-75
2023/09/21 10:25:41;;;;;;;1.63;1.53;;;23.80;86.00;;;;;;5098568;27;20966;-75
2023/09/21 10:28:37;;;;;;;2.07;1.57;;;23.80;86.00;;;;;;5099062;27;20794;-75
2023/09/21 10:31:20;;;;;;;1.77;1.57;;;24.00;85.50;;;;;;5093449;27;20624;-74
2023/09/21 10:34:10;;;;;;;1.37;1.27;;;24.10;81.90;;;;;;5091765;28;20645;-75
2023/09/21 10:36:45;;;;;;;1.77;1.60;;;24.10;79.70;;;;;;5094801;28;20739;-76
2023/09/21 10:39:26;;;;;;;1.57;1.47;;;24.20;81.80;;;;;;5091895;28;20659;-76
2023/09/21 10:41:54;;;;;;;1.37;1.23;;;24.20;84.30;;;;;;5084118;28;20718;-76
2023/09/21 10:44:59;;;;;;;1.50;1.40;;;24.50;83.00;;;;;;5098995;28;20665;-75
2023/09/21 10:47:29;;;;;;;1.60;1.50;;;24.60;82.00;;;;;;5086979;28;20642;-76
2023/09/21 10:49:58;;;;;;;1.53;1.43;;;24.80;80.50;;;;;;5101239;28;20618;-76
2023/09/21 10:52:28;;;;;;;4.30;2.00;;;24.80;83.20;;;;;;5079034;28;20637;-76
2023/09/21 10:54:55;;;;;;;1.20;1.10;;;24.90;82.50;;;;;;5081759;28;20621;-76
2023/09/21 10:57:31;;;;;;;1.50;1.40;;;25.00;81.40;;;;;;5094218;28;20657;-76
2023/09/21 11:00:00;;;;;;;1.67;1.57;;;25.00;80.00;;;;;;5093257;28;21248;-76
2023/09/21 11:02:30;;;;;;;2.20;1.67;;;25.10;82.00;;;;;;5096525;28;21188;-76
2023/09/21 11:04:58;;;;;;;2.30;2.10;;;25.20;80.50;;;;;;5084919;28;20646;-75
2023/09/21 11:07:26;;;;;;;1.77;1.67;;;25.20;79.90;;;;;;5092034;27;20627;-76
2023/09/21 11:09:52;;;;;;;4.60;1.90;;;25.30;79.40;;;;;;5100900;27;20618;-77
2023/09/21 11:12:21;;;;;;;2.43;1.33;;;25.30;79.70;;;;;;5100350;27;20642;-78
2023/09/21 11:14:50;;;;;;;1.30;1.20;;;25.40;79.60;;;;;;5104087;27;20635;-78
2023/09/21 11:17:19;;;;;;;2.47;1.70;;;25.40;78.90;;;;;;5085350;27;20636;-77
2023/09/21 11:19:47;;;;;;;2.00;1.80;;;25.50;78.40;;;;;;5094988;27;20666;-78
2023/09/21 11:22:15;;;;;;;1.77;1.67;;;25.40;79.20;;;;;;5099549;27;21231;-78
2023/09/21 11:24:42;;;;;;;2.63;1.33;;;25.30;78.60;;;;;;5092795;27;20634;-77
2023/09/21 11:27:11;;;;;;;3.53;1.80;;;25.40;78.70;;;;;;5105933;27;20623;-77
2023/09/21 11:29:41;;;;;;;1.70;1.60;;;25.50;77.90;;;;;;5081922;27;21010;-77
2023/09/21 11:32:09;;;;;;;20.20;3.70;;;25.50;78.10;;;;;;5101221;27;20627;-78
2023/09/21 11:34:39;;;;;;;2.43;2.23;;;25.40;75.80;;;;;;5096636;27;21036;-78
2023/09/21 11:37:08;;;;;;;1.70;1.60;;;25.20;77.70;;;;;;5104003;27;21228;-77
2023/09/21 11:39:37;;;;;;;1.87;1.70;;;25.00;79.80;;;;;;5104539;27;20654;-78
2023/09/21 11:42:04;;;;;;;1.90;1.60;;;25.10;77.50;;;;;;5105630;27;20630;-77
2023/09/21 11:44:31;;;;;;;2.13;1.93;;;25.10;78.30;;;;;;5085253;27;20725;-77
2023/09/21 11:46:58;;;;;;;1.43;1.33;;;25.10;79.30;;;;;;5089546;27;20632;-77
2023/09/21 11:49:36;;;;;;;2.83;1.97;;;25.10;79.30;;;;;;5102596;27;20608;-78
2023/09/21 11:52:04;;;;;;;2.27;1.77;;;25.20;78.50;;;;;;5096447;27;20627;-78
2023/09/21 11:54:34;;;;;;;1.53;1.43;;;25.20;79.50;;;;;;5104694;27;20631;-78
2023/09/21 11:57:04;;;;;;;2.57;1.50;;;25.20;77.60;;;;;;5086110;28;20632;-78
2023/09/21 11:59:36;;;;;;;1.20;1.10;;;25.00;78.30;;;;;;5102804;27;20654;-78
2023/09/21 12:02:09;;;;;;;3.07;1.47;;;25.10;80.60;;;;;;5099399;27;20647;-78
2023/09/21 12:04:37;;;;;;;1.57;1.47;;;25.20;79.60;;;;;;5102401;27;21051;-78
2023/09/21 12:07:05;;;;;;;1.40;1.30;;;25.30;78.20;;;;;;5087036;27;20674;-77
2023/09/21 12:09:36;;;;;;;1.57;1.40;;;25.20;79.20;;;;;;5092096;27;20616;-77
2023/09/21 12:12:04;;;;;;;1.73;1.63;;;25.50;77.50;;;;;;5095907;27;20639;-77
2023/09/21 12:14:31;;;;;;;1.50;1.40;;;25.50;77.90;;;;;;5101634;27;20637;-78
2023/09/21 12:17:02;;;;;;;1.63;1.53;;;25.60;80.60;;;;;;5104764;27;20645;-77
2023/09/21 12:19:30;;;;;;;1.93;1.60;;;25.70;78.50;;;;;;5081306;27;20699;-78
2023/09/21 12:21:58;;;;;;;3.33;1.63;;;25.70;81.10;;;;;;5093047;27;20696;-78
2023/09/21 12:24:29;;;;;;;1.77;1.50;;;25.80;76.70;;;;;;5092882;27;20680;-78
2023/09/21 12:26:56;;;;;;;1.67;1.57;;;25.70;76.00;;;;;;5096774;27;20781;-78
2023/09/21 12:29:24;;;;;;;2.60;1.60;;;25.80;78.10;;;;;;5103696;27;20631;-78
2023/09/21 12:31:51;;;;;;;1.73;1.60;;;25.70;73.20;;;;;;5093445;27;20829;-78
2023/09/21 12:34:19;;;;;;;3.70;1.33;;;25.70;76.60;;;;;;5098563;27;20722;-78
2023/09/21 12:36:49;;;;;;;1.63;1.53;;;25.70;76.90;;;;;;5099181;27;20635;-81
2023/09/21 12:39:16;;;;;;;1.63;1.53;;;25.70;76.60;;;;;;5093428;27;20624;-79
2023/09/21 12:41:44;;;;;;;3.33;1.90;;;25.70;79.00;;;;;;5101407;27;20624;-79
2023/09/21 12:44:11;;;;;;;1.67;1.57;;;25.80;79.50;;;;;;5085064;27;20635;-78
2023/09/21 12:46:38;;;;;;;2.77;1.90;;;25.90;75.50;;;;;;5084539;28;20624;-78
2023/09/21 12:49:05;;;;;;;1.83;1.70;;;25.70;74.70;;;;;;5097719;27;21305;-78
2023/09/21 12:51:32;;;;;;;3.80;2.03;;;25.50;74.90;;;;;;5097188;27;20632;-79
2023/09/21 12:53:59;;;;;;;2.37;1.30;;;25.60;77.50;;;;;;5099687;27;20612;-78